createdAt,value
2023-04-15T00:02:40.311Z,94.8
2023-04-15T00:13:19.057Z,95.07
2023-04-15T00:18:38.261Z,95.06
2023-04-15T00:29:16.789Z,95.64
2023-04-15T00:34:35.894Z,95.77
2023-04-15T00:45:14.064Z,96.22
2023-04-15T00:50:33.127Z,96.25
2023-04-15T01:01:11.947Z,96.31
2023-04-15T01:06:31.550Z,96.5
2023-04-15T01:11:51.228Z,96.43
2023-04-15T01:17:10.708Z,96.37
2023-04-15T01:27:49.997Z,96.34
2023-04-15T01:33:09.078Z,96.47
2023-04-15T01:43:47.837Z,96.67
2023-04-15T01:54:26.274Z,96.78
2023-04-15T01:59:45.753Z,96.74
2023-04-15T02:10:24.282Z,96.97
2023-04-15T02:15:43.296Z,97.1
2023-04-15T02:26:21.274Z,97.17
2023-04-15T02:31:40.532Z,97.24
2023-04-15T02:36:59.857Z,97.33
2023-04-15T02:42:19.235Z,97.4
2023-04-15T02:52:58.530Z,97.29
2023-04-15T02:58:17.925Z,97.36
2023-04-15T03:08:56.831Z,97.48
2023-04-15T03:14:16.506Z,97.6
2023-04-15T03:24:54.843Z,97.72
2023-04-15T03:35:33.408Z,97.93
2023-04-15T03:40:52.805Z,97.97
2023-04-15T03:51:30.879Z,98
2023-04-15T03:56:50.235Z,97.99
2023-04-15T04:02:09.326Z,97.93
2023-04-15T04:07:28.818Z,97.94
2023-04-15T04:18:07.535Z,97.79
2023-04-15T04:28:45.918Z,97.54
2023-04-15T04:34:05.698Z,97.44
2023-04-15T04:44:43.945Z,96.86
2023-04-15T04:55:22.685Z,97.1
2023-04-15T05:00:41.956Z,97.26
2023-04-15T05:11:20.815Z,97.38
2023-04-15T05:16:40.458Z,97.39
2023-04-15T05:27:19.098Z,97.35
2023-04-15T05:37:57.613Z,96.78
2023-04-15T05:43:17.062Z,96.18
2023-04-15T05:53:56.230Z,95.28
2023-04-15T05:59:15.736Z,94.89
2023-04-15T06:09:54.096Z,94.35
2023-04-15T06:15:13.356Z,93.92
2023-04-15T06:25:52.594Z,92.8
2023-04-15T06:36:31.421Z,91.65
2023-04-15T06:41:50.304Z,91.54
2023-04-15T06:52:28.879Z,90.16
2023-04-15T06:57:48.651Z,90.19
2023-04-15T07:08:27.072Z,89.96
2023-04-15T07:24:25.455Z,88.63
2023-04-15T07:35:03.677Z,86.8
2023-04-15T07:40:22.763Z,86.59
2023-04-15T07:51:00.776Z,82.04
2023-04-15T07:56:20.078Z,82.93
2023-04-15T08:01:40.028Z,77.53
2023-04-15T08:06:59.313Z,75.78
2023-04-15T08:17:37.166Z,74.69
2023-04-15T08:22:56.616Z,74.9
2023-04-15T08:33:34.226Z,75.25
2023-04-15T08:38:53.180Z,73.85
2023-04-15T08:44:12.411Z,72.58
2023-04-15T08:49:31.689Z,72.14
2023-04-15T09:00:09.377Z,66.26
2023-04-15T09:05:28.489Z,66.32
2023-04-15T09:16:07.323Z,64.3
2023-04-15T09:21:26.072Z,62.09
2023-04-15T09:32:04.663Z,59.31
2023-04-15T09:42:42.877Z,56.49
2023-04-15T09:48:02.009Z,57.83
2023-04-15T09:58:40.460Z,58.87
2023-04-15T10:04:00.440Z,60.31
2023-04-15T10:14:38.990Z,58.8
2023-04-15T10:30:36.889Z,53.31
2023-04-15T10:41:14.815Z,54.41
2023-04-15T10:46:33.868Z,55.92
2023-04-15T10:57:12.492Z,55.19
2023-04-15T11:07:50.131Z,56.66
2023-04-15T11:18:28.466Z,58.67
2023-04-15T11:23:47.167Z,59.78
2023-04-15T11:34:26.470Z,61.51
2023-04-15T11:50:24.991Z,64.15
2023-04-15T12:01:03.314Z,64.76
2023-04-15T12:06:22.717Z,64.33
2023-04-15T12:17:01.037Z,69.37
2023-04-15T12:22:20.222Z,69.57
2023-04-15T12:32:57.954Z,74.5
2023-04-15T12:43:35.753Z,79.21
2023-04-15T12:48:55.140Z,78.76
2023-04-15T12:59:34.094Z,79.25
2023-04-15T13:04:53.129Z,79.51
2023-04-15T13:15:32.121Z,80.24
2023-04-15T13:20:59.393Z,80.87
2023-04-15T13:31:29.328Z,81
2023-04-15T13:42:07.366Z,85.28
2023-04-15T13:47:27.001Z,87.17
2023-04-15T13:58:05.691Z,88.74
2023-04-15T14:03:25.365Z,89.28
2023-04-15T14:14:03.730Z,90.57
2023-04-15T14:30:01.541Z,90.47
2023-04-15T14:35:53.388Z,90.17
2023-04-15T14:46:32.207Z,91.29
2023-04-15T14:57:10.106Z,92.32
2023-04-15T15:13:08.710Z,92.43
2023-04-15T15:18:28.091Z,92.77
2023-04-15T15:29:06.890Z,92.94
2023-04-15T15:34:25.541Z,93.09
2023-04-15T15:39:44.887Z,93.5
2023-04-15T15:45:03.706Z,93.4
2023-04-15T15:55:42.527Z,93.79
2023-04-15T16:01:02.172Z,94.27
2023-04-15T16:11:39.874Z,94.7
2023-04-15T16:16:59.141Z,95.17
2023-04-15T16:27:50.199Z,95.39
2023-04-15T16:38:16.254Z,96.12
2023-04-15T16:43:45.274Z,96.29
2023-04-15T16:54:13.125Z,96.85
2023-04-15T16:59:32.698Z,97.08
2023-04-15T17:10:11.526Z,97.52
2023-04-15T17:20:50.320Z,97.94
2023-04-15T17:26:09.526Z,98.03
2023-04-15T17:36:48.459Z,98.06
2023-04-15T17:42:07.986Z,98.13
2023-04-15T17:58:06.488Z,98.23
2023-04-15T18:03:25.995Z,98.23
2023-04-15T18:14:03.812Z,98.36
2023-04-15T18:19:22.894Z,98.45
2023-04-15T18:30:02.439Z,98.55
2023-04-15T18:35:21.551Z,98.62
2023-04-15T18:46:00.806Z,98.77
2023-04-15T18:56:38.653Z,98.95
2023-04-15T19:01:57.634Z,99.08
2023-04-15T19:12:35.417Z,99.24
2023-04-15T19:17:54.823Z,99.3
2023-04-15T19:28:33.622Z,99.41
2023-04-15T19:33:52.622Z,99.47
2023-04-15T19:39:12.341Z,99.47
2023-04-15T19:44:32.038Z,99.53
2023-04-15T19:55:21.050Z,99.58
2023-04-15T20:00:29.974Z,99.61
2023-04-15T20:11:08.602Z,99.67
2023-04-15T20:16:27.640Z,99.67
2023-04-15T20:21:47.028Z,99.72
2023-04-15T20:27:06.518Z,99.74
2023-04-15T20:37:44.506Z,99.77
2023-04-15T20:43:04.059Z,99.79
2023-04-15T20:53:42.454Z,99.84
2023-04-15T20:59:01.633Z,99.92
2023-04-15T21:04:20.669Z,99.92
2023-04-15T21:09:40.378Z,99.95
2023-04-15T21:25:39.403Z,99.99
2023-04-15T21:36:17.849Z,99.99
2023-04-15T21:41:36.867Z,99.99
2023-04-15T21:52:15.926Z,99.99
2023-04-15T21:57:34.716Z,99.99
2023-04-15T22:08:12.554Z,99.99
2023-04-15T22:18:50.871Z,99.99
2023-04-15T22:24:31.932Z,99.99
2023-04-15T22:34:49.005Z,99.99
2023-04-15T22:45:26.632Z,99.99
2023-04-15T22:50:45.928Z,99.99
2023-04-15T23:01:24.938Z,99.99
2023-04-15T23:06:44.397Z,99.99
2023-04-15T23:17:23.423Z,99.99
2023-04-15T23:33:21.215Z,99.99
2023-04-15T23:43:59.821Z,99.99
2023-04-15T23:49:20.426Z,99.99
2023-04-15T23:59:57.785Z,99.99
